Time;durP1;ratioP1;P1;durP2;ratioP2;P2;SDS_P1;SDS_P2;PMS_P1;PMS_P2;Temp;Humidity;BMP_temperature;BMP_pressure;BME280_temperature;BME280_humidity;BME280_pressure;Samples;Min_cycle;Max_cycle;Signal;HPM_P1;HPM_P2
2021/06/01 00:01:32;;;;;;;3.33;1.40;;;10.30;76.60;;;;;;5099802;28;20064;-79
2021/06/01 00:04:00;;;;;;;2.53;1.27;;;10.40;76.70;;;;;;5105533;28;20060;-80
2021/06/01 00:06:35;;;;;;;3.72;1.48;;;10.30;76.60;;;;;;5101892;28;20101;-79
2021/06/01 00:09:04;;;;;;;2.92;1.45;;;10.30;76.90;;;;;;5101072;28;20056;-82
2021/06/01 00:11:33;;;;;;;4.15;1.55;;;10.20;77.10;;;;;;5098750;28;20053;-81
2021/06/01 00:14:08;;;;;;;2.80;1.50;;;10.20;76.60;;;;;;5099971;28;20060;-80
2021/06/01 00:16:40;;;;;;;2.70;1.20;;;10.20;76.70;;;;;;5096713;28;20044;-81
2021/06/01 00:19:10;;;;;;;2.13;1.02;;;10.20;76.50;;;;;;5097809;28;20047;-80
2021/06/01 00:21:39;;;;;;;3.55;1.73;;;10.10;77.20;;;;;;5098177;28;20071;-80
2021/06/01 00:24:07;;;;;;;4.75;1.60;;;10.10;77.30;;;;;;5098307;28;20044;-81
2021/06/01 00:26:39;;;;;;;3.75;1.42;;;10.10;77.70;;;;;;5101649;28;20044;-81
2021/06/01 00:29:08;;;;;;;2.90;1.38;;;10.10;77.50;;;;;;5101901;28;20048;-81
2021/06/01 00:31:35;;;;;;;3.65;1.70;;;10.10;78.40;;;;;;5096008;28;20035;-80
2021/06/01 00:34:04;;;;;;;4.07;1.60;;;10.00;78.40;;;;;;5100346;28;20059;-80
2021/06/01 00:36:31;;;;;;;4.68;1.88;;;10.00;78.60;;;;;;5093285;28;20052;-80
2021/06/01 00:39:00;;;;;;;3.88;1.85;;;10.10;78.70;;;;;;5098839;28;20154;-81
2021/06/01 00:41:32;;;;;;;3.15;1.88;;;9.90;79.70;;;;;;5086611;28;20060;-79
2021/06/01 00:44:00;;;;;;;6.45;2.17;;;9.90;79.80;;;;;;5098355;28;20040;-80
2021/06/01 00:46:33;;;;;;;10.98;2.10;;;9.90;80.20;;;;;;5083619;28;20079;-83
2021/06/01 00:49:00;;;;;;;4.28;1.73;;;10.10;79.90;;;;;;5099595;28;20056;-81
2021/06/01 00:51:33;;;;;;;3.38;1.48;;;10.20;79.70;;;;;;5356037;22;20132;-80
2021/06/01 00:54:01;;;;;;;3.38;1.50;;;10.20;79.40;;;;;;5041825;28;20049;-81
2021/06/01 00:56:32;;;;;;;5.10;2.00;;;10.10;79.60;;;;;;5046272;28;20041;-81
2021/06/01 00:59:01;;;;;;;3.97;2.10;;;10.10;79.60;;;;;;5056199;28;20234;-80
2021/06/01 01:01:28;;;;;;;5.10;1.83;;;10.10;79.50;;;;;;5053461;28;20061;-80
2021/06/01 01:03:55;;;;;;;4.35;1.92;;;10.10;79.40;;;;;;5058581;28;20076;-80
2021/06/01 15:31:05;;;;;;;3.00;1.23;;;40.40;13.30;;;;;;5039566;28;20049;-66
2021/06/01 15:50:18;;;;;;;2.97;1.10;;;39.00;14.20;;;;;;5043576;28;20116;-65
2021/06/01 16:12:56;;;;;;;3.35;2.38;;;37.10;14.70;;;;;;5062934;28;20177;-66
2021/06/01 16:23:44;;;;;;;4.38;1.80;;;37.80;14.30;;;;;;5061943;28;20044;-66
2021/06/01 16:32:03;;;;;;;2.05;1.20;;;36.90;16.20;;;;;;5061864;28;20057;-65
2021/06/01 16:43:16;;;;;;;3.45;1.63;;;38.00;15.40;;;;;;5059430;28;20040;-66
2021/06/01 17:05:41;;;;;;;4.50;1.50;;;37.70;15.40;;;;;;1083566;28;10022602;-66
2021/06/01 17:11:28;;;;;;;2.80;1.33;;;36.90;16.50;;;;;;4990673;28;20118;-66
2021/06/01 17:13:57;;;;;;;3.08;1.50;;;37.30;16.00;;;;;;4989820;28;20058;-66
2021/06/01 17:16:35;;;;;;;2.70;1.48;;;37.30;16.40;;;;;;4988012;28;20035;-66
2021/06/01 17:30:45;;;;;;;1.80;1.20;;;35.40;17.30;;;;;;4981975;28;20070;-66
2021/06/01 17:36:01;;;;;;;2.65;1.30;;;33.50;19.60;;;;;;5012243;28;20050;-66
2021/06/01 17:38:31;;;;;;;3.17;1.48;;;33.30;19.90;;;;;;4989233;28;20258;-66
2021/06/01 17:41:01;;;;;;;1.98;1.20;;;31.70;20.90;;;;;;4989787;28;20257;-66
2021/06/01 17:43:31;;;;;;;3.40;1.55;;;30.50;22.20;;;;;;4989818;28;20134;-66
2021/06/01 17:45:59;;;;;;;2.97;1.40;;;30.10;23.50;;;;;;4990834;28;20218;-65
2021/06/01 17:48:36;;;;;;;5.15;1.67;;;29.80;23.30;;;;;;4996911;28;20058;-65
2021/06/01 17:51:07;;;;;;;4.70;1.38;;;29.60;23.80;;;;;;5010664;28;20049;-65
2021/06/01 17:53:43;;;;;;;3.30;1.33;;;30.00;23.50;;;;;;4987861;28;20268;-66
2021/06/01 17:56:14;;;;;;;3.95;2.15;;;30.90;22.10;;;;;;4994898;28;20038;-66
2021/06/01 17:58:41;;;;;;;3.08;1.70;;;31.50;21.70;;;;;;4984690;28;20047;-66
2021/06/01 18:01:09;;;;;;;3.45;1.40;;;32.50;21.10;;;;;;5005987;28;20344;-66
2021/06/01 18:03:42;;;;;;;3.38;1.67;;;32.60;20.30;;;;;;4993006;28;20078;-66
2021/06/01 18:06:10;;;;;;;2.03;1.20;;;31.00;21.00;;;;;;4993376;28;20229;-66
2021/06/01 18:08:44;;;;;;;2.83;1.30;;;29.60;22.90;;;;;;4980651;28;20224;-65
2021/06/01 18:37:00;;;;;;;3.10;1.40;;;24.50;32.30;;;;;;4992513;28;20049;-65
2021/06/01 19:02:11;;;;;;;2.13;1.15;;;22.60;37.50;;;;;;4990403;28;20062;-64
2021/06/01 19:21:48;;;;;;;6.20;1.92;;;21.10;41.50;;;;;;4991302;28;20054;-66
2021/06/01 19:24:26;;;;;;;2.78;1.20;;;20.90;42.30;;;;;;4989048;28;20062;-66
2021/06/01 19:49:57;;;;;;;5.53;1.38;;;19.20;49.10;;;;;;4985551;28;20039;-63
2021/06/01 19:52:25;;;;;;;2.58;1.40;;;19.00;50.00;;;;;;4991422;28;20126;-65
2021/06/01 19:54:54;;;;;;;2.60;1.55;;;18.90;50.30;;;;;;4996924;28;20046;-65
2021/06/01 19:57:22;;;;;;;2.92;1.33;;;18.70;51.10;;;;;;5011361;28;20042;-65
2021/06/01 19:59:51;;;;;;;2.60;1.30;;;18.50;51.70;;;;;;4994139;28;20066;-65
2021/06/01 20:02:21;;;;;;;2.50;1.40;;;18.40;51.40;;;;;;4982353;28;20081;-65
2021/06/01 20:04:52;;;;;;;4.80;1.50;;;18.30;51.30;;;;;;4995864;28;20054;-65
2021/06/01 20:07:20;;;;;;;3.80;1.20;;;18.20;51.00;;;;;;4997643;28;20058;-65
2021/06/01 20:09:48;;;;;;;3.75;1.60;;;18.20;51.30;;;;;;4996206;28;20330;-65
2021/06/01 20:12:15;;;;;;;2.13;1.05;;;18.10;51.50;;;;;;4989265;28;20059;-65
2021/06/01 20:14:42;;;;;;;3.70;1.38;;;18.00;51.80;;;;;;4995104;28;20062;-65
2021/06/01 20:17:16;;;;;;;4.85;1.95;;;17.90;52.30;;;;;;4983850;28;20043;-65
2021/06/01 20:19:46;;;;;;;3.72;1.70;;;17.80;51.90;;;;;;4995838;28;20058;-65
2021/06/01 20:22:15;;;;;;;2.38;1.42;;;17.70;53.00;;;;;;4994737;28;20293;-65
2021/06/01 20:24:45;;;;;;;3.35;1.40;;;17.60;53.60;;;;;;4990307;28;20102;-65
2021/06/01 20:27:15;;;;;;;3.60;1.60;;;17.40;53.80;;;;;;4984719;28;20054;-65
2021/06/01 20:29:46;;;;;;;3.53;1.58;;;17.30;54.10;;;;;;4990322;28;20090;-65
2021/06/01 20:35:03;;;;;;;3.67;1.95;;;17.20;55.30;;;;;;4989986;28;20096;-65
2021/06/01 20:37:31;;;;;;;3.35;1.80;;;17.10;55.90;;;;;;4990037;28;20069;-66
2021/06/01 20:40:00;;;;;;;2.75;1.80;;;16.90;56.40;;;;;;4983222;28;20043;-65
2021/06/01 20:42:31;;;;;;;3.38;1.70;;;16.80;56.30;;;;;;4992383;28;20234;-65
2021/06/01 20:45:00;;;;;;;4.63;1.50;;;16.70;57.10;;;;;;4983892;28;20427;-65
2021/06/01 20:47:30;;;;;;;3.80;1.90;;;16.60;57.70;;;;;;4996107;28;20042;-65
2021/06/01 20:50:00;;;;;;;2.67;1.42;;;16.50;57.90;;;;;;4993700;28;20129;-65
2021/06/01 20:52:33;;;;;;;2.92;1.65;;;16.40;57.90;;;;;;4993722;28;20050;-65
2021/06/01 20:55:00;;;;;;;3.50;2.10;;;16.30;58.60;;;;;;4994689;28;20069;-65
2021/06/01 20:57:31;;;;;;;2.97;1.60;;;16.20;59.00;;;;;;4992519;28;20313;-65
2021/06/01 20:59:59;;;;;;;2.78;1.55;;;16.10;58.70;;;;;;4991089;28;20058;-65
2021/06/01 21:02:27;;;;;;;3.95;1.48;;;16.00;59.10;;;;;;4984000;28;20086;-65
2021/06/01 21:04:56;;;;;;;4.22;1.33;;;16.00;59.70;;;;;;4989578;28;20050;-65
2021/06/01 21:07:22;;;;;;;3.25;1.58;;;15.90;59.70;;;;;;4983889;28;20169;-65
2021/06/01 21:09:52;;;;;;;2.83;1.30;;;15.70;60.20;;;;;;4986525;28;20051;-65
2021/06/01 21:12:19;;;;;;;3.72;1.40;;;15.70;60.10;;;;;;4984321;28;20042;-65
2021/06/01 21:14:46;;;;;;;3.85;1.50;;;15.60;60.50;;;;;;4993766;28;20136;-65
2021/06/01 21:17:13;;;;;;;2.47;1.15;;;15.60;60.80;;;;;;4993954;28;20113;-65
2021/06/01 21:19:42;;;;;;;3.15;1.70;;;15.60;60.50;;;;;;4981599;28;20058;-65
2021/06/01 21:22:11;;;;;;;3.78;1.60;;;15.50;61.10;;;;;;4983246;28;20066;-65
2021/06/01 21:24:38;;;;;;;2.70;1.30;;;15.50;61.10;;;;;;4986584;28;20046;-65
2021/06/01 21:27:08;;;;;;;3.72;1.70;;;15.40;61.50;;;;;;4988362;28;20051;-65
2021/06/01 21:29:36;;;;;;;4.80;1.73;;;15.40;61.80;;;;;;4983553;28;20514;-65
2021/06/01 21:32:16;;;;;;;3.92;1.73;;;15.30;62.30;;;;;;4995526;28;20056;-65
2021/06/01 21:34:46;;;;;;;3.45;1.45;;;15.30;61.40;;;;;;4987802;28;20460;-64
2021/06/01 21:37:15;;;;;;;5.00;2.30;;;15.20;61.40;;;;;;4983530;28;20389;-65
2021/06/01 21:39:44;;;;;;;3.60;1.80;;;15.20;62.10;;;;;;4990374;28;20672;-65
2021/06/01 21:42:13;;;;;;;3.83;1.70;;;15.10;62.70;;;;;;4988530;28;20121;-64
2021/06/01 21:44:42;;;;;;;3.65;1.63;;;15.10;63.00;;;;;;4989939;28;20062;-64
2021/06/01 21:47:09;;;;;;;2.90;1.25;;;15.10;62.30;;;;;;4994425;28;20260;-64
2021/06/01 21:49:43;;;;;;;3.88;1.77;;;14.90;63.60;;;;;;4994712;28;20264;-64
2021/06/01 21:52:10;;;;;;;5.05;1.60;;;14.80;63.60;;;;;;4994604;28;20061;-64
2021/06/01 21:54:38;;;;;;;4.38;1.58;;;14.80;63.30;;;;;;4993296;28;20038;-64
2021/06/01 21:57:08;;;;;;;2.85;1.70;;;14.80;63.60;;;;;;4988082;28;20054;-65
2021/06/01 21:59:39;;;;;;;3.47;1.80;;;14.70;63.80;;;;;;4980259;28;20490;-65
2021/06/01 22:02:07;;;;;;;4.32;1.83;;;14.60;64.00;;;;;;4989146;28;20121;-65
2021/06/01 22:04:35;;;;;;;3.03;1.77;;;14.50;65.20;;;;;;4989544;28;20057;-65
2021/06/01 22:07:05;;;;;;;4.03;1.73;;;14.30;65.20;;;;;;4988901;28;20054;-65
2021/06/01 22:09:34;;;;;;;3.60;1.83;;;14.30;66.20;;;;;;4984659;28;20461;-65
2021/06/01 22:12:05;;;;;;;1.90;1.23;;;14.30;66.30;;;;;;4990961;28;20046;-65
2021/06/01 22:14:32;;;;;;;4.68;1.30;;;14.20;66.80;;;;;;4991341;28;20584;-65
2021/06/01 22:17:05;;;;;;;4.25;1.67;;;14.10;67.10;;;;;;4991595;28;20080;-65
2021/06/01 22:19:38;;;;;;;4.53;1.52;;;14.10;67.30;;;;;;4992987;28;20253;-65
2021/06/01 22:22:09;;;;;;;3.28;1.95;;;14.00;68.00;;;;;;4992736;28;20053;-65
2021/06/01 22:24:38;;;;;;;6.05;2.30;;;14.00;68.30;;;;;;4992479;28;20054;-65
2021/06/01 22:27:11;;;;;;;4.85;2.40;;;14.00;68.70;;;;;;4992952;28;20046;-65
2021/06/01 22:29:40;;;;;;;4.35;2.00;;;13.90;68.40;;;;;;4981846;28;20062;-65
2021/06/01 22:32:10;;;;;;;3.80;1.57;;;13.90;68.20;;;;;;4982931;28;20142;-65
2021/06/01 22:34:40;;;;;;;5.43;1.98;;;13.90;68.00;;;;;;4991583;28;20407;-65
2021/06/01 22:37:08;;;;;;;3.10;1.67;;;13.80;68.10;;;;;;4993091;28;20049;-65
2021/06/01 22:39:35;;;;;;;3.40;1.70;;;13.70;68.60;;;;;;4985117;28;20046;-65
2021/06/01 22:42:05;;;;;;;3.15;1.60;;;13.70;68.40;;;;;;4991412;28;20324;-65
2021/06/01 22:44:36;;;;;;;3.08;1.65;;;13.70;68.70;;;;;;4992333;28;20109;-64
2021/06/01 22:47:08;;;;;;;6.88;1.70;;;13.60;69.20;;;;;;4993795;28;20046;-64
2021/06/01 22:49:36;;;;;;;;;;;13.60;68.50;;;;;;4982700;28;20361;-64
2021/06/01 22:52:04;;;;;;;5.13;1.80;;;13.60;69.20;;;;;;4985964;28;19933;-65
2021/06/01 22:54:31;;;;;;;2.72;1.67;;;13.60;69.10;;;;;;4981856;28;20094;-65
2021/06/01 22:56:58;;;;;;;4.63;1.70;;;13.60;69.50;;;;;;4989980;28;20388;-65
2021/06/01 22:59:33;;;;;;;3.35;1.52;;;13.50;69.10;;;;;;4987831;28;20583;-65
2021/06/01 23:02:01;;;;;;;5.43;1.80;;;13.40;70.20;;;;;;4976721;28;20364;-64
2021/06/01 23:04:34;;;;;;;3.88;1.88;;;13.40;70.10;;;;;;4990647;28;20357;-65
2021/06/01 23:07:04;;;;;;;5.75;3.13;;;13.40;69.70;;;;;;4992155;28;20055;-65
2021/06/01 23:09:37;;;;;;;4.80;2.33;;;13.30;70.40;;;;;;4992869;28;20046;-64
2021/06/01 23:12:06;;;;;;;4.47;2.45;;;13.20;70.30;;;;;;4987400;28;20125;-64
2021/06/01 23:14:35;;;;;;;4.38;2.05;;;13.20;71.00;;;;;;4987861;28;20121;-64
2021/06/01 23:17:07;;;;;;;4.47;2.28;;;13.20;71.20;;;;;;4989188;28;20353;-64
2021/06/01 23:19:35;;;;;;;6.72;2.03;;;13.10;71.70;;;;;;4993549;28;20130;-65
2021/06/01 23:22:04;;;;;;;6.03;2.40;;;13.10;72.10;;;;;;4993678;28;20034;-65
2021/06/01 23:24:36;;;;;;;4.78;2.30;;;13.20;73.30;;;;;;4993126;28;20100;-65
2021/06/01 23:27:07;;;;;;;6.03;2.75;;;13.20;73.30;;;;;;4993861;28;20048;-65
2021/06/01 23:29:34;;;;;;;4.93;2.65;;;13.20;74.10;;;;;;4985300;28;20146;-65
2021/06/01 23:32:04;;;;;;;6.90;2.40;;;13.20;74.10;;;;;;4991549;28;20089;-65
2021/06/01 23:34:31;;;;;;;13.52;3.38;;;13.20;74.40;;;;;;4986157;28;20068;-64
2021/06/01 23:37:01;;;;;;;7.93;3.08;;;13.20;74.60;;;;;;4988320;28;20118;-64
2021/06/01 23:39:38;;;;;;;5.05;2.15;;;13.20;75.10;;;;;;4993958;28;20046;-64
2021/06/01 23:42:06;;;;;;;4.50;2.25;;;13.00;73.40;;;;;;4989298;28;20082;-64
2021/06/01 23:44:33;;;;;;;6.22;2.75;;;12.90;75.00;;;;;;4994987;28;20059;-64
2021/06/01 23:47:06;;;;;;;3.88;1.98;;;12.80;75.00;;;;;;4991548;28;20047;-64
2021/06/01 23:49:51;;;;;;;6.45;2.10;;;12.80;75.20;;;;;;4992704;28;20229;-64
2021/06/01 23:52:35;;;;;;;5.03;2.63;;;12.80;75.40;;;;;;4993183;28;20058;-64
2021/06/01 23:55:05;;;;;;;7.95;3.08;;;12.70;75.90;;;;;;4992973;28;20061;-64
2021/06/01 23:57:34;;;;;;;4.65;2.80;;;12.60;76.60;;;;;;4994536;28;20046;-65
